sensor_id;sensor_type;location;lat;lon;timestamp;pressure;altitude;pressure_sealevel;temperature;humidity
76827;BME280;65788;52.284;20.890;2023-06-04T00:02:23;101121.63;;;22.58;28.52
76827;BME280;65788;52.284;20.890;2023-06-04T00:04:50;101117.77;;;22.53;28.94
76827;BME280;65788;52.284;20.890;2023-06-04T00:07:17;101114.80;;;22.48;29.17
76827;BME280;65788;52.284;20.890;2023-06-04T00:09:45;101110.61;;;22.45;29.23
76827;BME280;65788;52.284;20.890;2023-06-04T00:12:13;101106.34;;;22.44;29.28
76827;BME280;65788;52.284;20.890;2023-06-04T00:14:40;101108.17;;;22.45;29.01
76827;BME280;65788;52.284;20.890;2023-06-04T00:17:08;101107.52;;;22.45;28.93
76827;BME280;65788;52.284;20.890;2023-06-04T00:19:38;101108.36;;;22.42;29.02
76827;BME280;65788;52.284;20.890;2023-06-04T00:22:05;101113.36;;;22.40;29.23
76827;BME280;65788;52.284;20.890;2023-06-04T00:24:34;101109.52;;;22.37;29.32
76827;BME280;65788;52.284;20.890;2023-06-04T00:27:01;101108.23;;;22.34;29.41
76827;BME280;65788;52.284;20.890;2023-06-04T00:29:28;101104.94;;;22.32;29.50
76827;BME280;65788;52.284;20.890;2023-06-04T00:31:56;101101.98;;;22.32;29.38
76827;BME280;65788;52.284;20.890;2023-06-04T00:34:25;101102.92;;;22.31;29.50
76827;BME280;65788;52.284;20.890;2023-06-04T00:36:52;101100.89;;;22.27;29.66
76827;BME280;65788;52.284;20.890;2023-06-04T00:39:18;101101.24;;;22.26;29.70
76827;BME280;65788;52.284;20.890;2023-06-04T00:41:46;101103.09;;;22.26;29.66
76827;BME280;65788;52.284;20.890;2023-06-04T00:44:12;101102.88;;;22.25;29.70
76827;BME280;65788;52.284;20.890;2023-06-04T00:46:39;101102.35;;;22.21;29.85
76827;BME280;65788;52.284;20.890;2023-06-04T00:49:06;101105.77;;;22.22;29.78
76827;BME280;65788;52.284;20.890;2023-06-04T00:51:33;101104.18;;;22.22;29.79
76827;BME280;65788;52.284;20.890;2023-06-04T00:54:02;101101.24;;;22.19;29.87
76827;BME280;65788;52.284;20.890;2023-06-04T00:56:38;101104.52;;;22.20;29.80
76827;BME280;65788;52.284;20.890;2023-06-04T00:59:07;101108.55;;;22.18;29.85
76827;BME280;65788;52.284;20.890;2023-06-04T01:04:16;101103.32;;;22.15;30.04
76827;BME280;65788;52.284;20.890;2023-06-04T01:06:49;101103.60;;;22.12;30.07
76827;BME280;65788;52.284;20.890;2023-06-04T01:09:18;101105.89;;;22.09;30.15
76827;BME280;65788;52.284;20.890;2023-06-04T01:11:45;101103.23;;;22.09;30.14
76827;BME280;65788;52.284;20.890;2023-06-04T01:14:12;101103.96;;;22.08;30.16
76827;BME280;65788;52.284;20.890;2023-06-04T01:16:52;101101.02;;;22.05;30.19
76827;BME280;65788;52.284;20.890;2023-06-04T01:22:16;101100.98;;;22.04;30.21
76827;BME280;65788;52.284;20.890;2023-06-04T01:24:53;101100.13;;;22.05;30.09
76827;BME280;65788;52.284;20.890;2023-06-04T01:27:23;101097.74;;;22.03;30.15
76827;BME280;65788;52.284;20.890;2023-06-04T01:29:53;101101.00;;;22.02;30.19
76827;BME280;65788;52.284;20.890;2023-06-04T01:32:24;101099.99;;;21.98;30.21
76827;BME280;65788;52.284;20.890;2023-06-04T01:34:51;101102.86;;;21.99;30.21
76827;BME280;65788;52.284;20.890;2023-06-04T01:37:18;101105.53;;;21.97;30.25
76827;BME280;65788;52.284;20.890;2023-06-04T01:39:45;101106.91;;;21.97;30.27
76827;BME280;65788;52.284;20.890;2023-06-04T01:42:12;101100.40;;;21.94;30.29
76827;BME280;65788;52.284;20.890;2023-06-04T01:44:42;101103.26;;;21.91;30.31
76827;BME280;65788;52.284;20.890;2023-06-04T01:47:09;101098.98;;;21.94;30.28
76827;BME280;65788;52.284;20.890;2023-06-04T01:49:36;101097.11;;;21.93;30.29
76827;BME280;65788;52.284;20.890;2023-06-04T01:52:05;101100.34;;;21.91;30.34
76827;BME280;65788;52.284;20.890;2023-06-04T01:54:32;101094.95;;;21.90;30.34
76827;BME280;65788;52.284;20.890;2023-06-04T01:57:00;101096.27;;;21.89;30.34
76827;BME280;65788;52.284;20.890;2023-06-04T01:59:27;101098.85;;;21.90;30.34
76827;BME280;65788;52.284;20.890;2023-06-04T02:01:56;101092.38;;;21.89;30.36
76827;BME280;65788;52.284;20.890;2023-06-04T02:04:23;101095.86;;;21.86;30.43
76827;BME280;65788;52.284;20.890;2023-06-04T02:06:50;101092.95;;;21.85;30.44
76827;BME280;65788;52.284;20.890;2023-06-04T02:09:19;101089.90;;;21.86;30.43
76827;BME280;65788;52.284;20.890;2023-06-04T02:11:47;101091.59;;;21.85;30.44
76827;BME280;65788;52.284;20.890;2023-06-04T02:14:14;101089.60;;;21.88;30.40
76827;BME280;65788;52.284;20.890;2023-06-04T02:16:41;101091.79;;;21.86;30.45
76827;BME280;65788;52.284;20.890;2023-06-04T02:19:08;101089.02;;;21.86;30.46
76827;BME280;65788;52.284;20.890;2023-06-04T02:21:38;101090.31;;;21.83;30.59
76827;BME280;65788;52.284;20.890;2023-06-04T02:24:05;101090.90;;;21.84;31.25
76827;BME280;65788;52.284;20.890;2023-06-04T02:26:32;101091.86;;;21.81;31.53
76827;BME280;65788;52.284;20.890;2023-06-04T02:28:59;101091.39;;;21.79;31.50
76827;BME280;65788;52.284;20.890;2023-06-04T02:31:26;101091.91;;;21.78;31.36
76827;BME280;65788;52.284;20.890;2023-06-04T02:33:55;101094.83;;;21.78;31.28
76827;BME280;65788;52.284;20.890;2023-06-04T02:36:22;101093.39;;;21.79;31.20
76827;BME280;65788;52.284;20.890;2023-06-04T02:38:49;101096.29;;;21.81;31.15
76827;BME280;65788;52.284;20.890;2023-06-04T02:41:17;101094.65;;;21.78;31.16
76827;BME280;65788;52.284;20.890;2023-06-04T02:43:44;101092.15;;;21.76;31.19
76827;BME280;65788;52.284;20.890;2023-06-04T02:46:11;101095.91;;;21.76;31.13
76827;BME280;65788;52.284;20.890;2023-06-04T02:48:38;101099.55;;;21.79;31.04
76827;BME280;65788;52.284;20.890;2023-06-04T02:51:05;101095.14;;;21.75;31.06
76827;BME280;65788;52.284;20.890;2023-06-04T02:53:32;101097.42;;;21.75;31.04
76827;BME280;65788;52.284;20.890;2023-06-04T02:55:59;101095.48;;;21.77;30.99
76827;BME280;65788;52.284;20.890;2023-06-04T02:58:26;101095.17;;;21.70;31.05
76827;BME280;65788;52.284;20.890;2023-06-04T03:00:53;101095.54;;;21.72;30.97
76827;BME280;65788;52.284;20.890;2023-06-04T03:03:20;101093.63;;;21.70;31.01
76827;BME280;65788;52.284;20.890;2023-06-04T03:05:47;101096.48;;;21.71;30.99
76827;BME280;65788;52.284;20.890;2023-06-04T03:08:14;101093.88;;;21.72;30.95
76827;BME280;65788;52.284;20.890;2023-06-04T03:10:42;101094.61;;;21.72;30.90
76827;BME280;65788;52.284;20.890;2023-06-04T03:13:09;101093.50;;;21.71;30.93
76827;BME280;65788;52.284;20.890;2023-06-04T03:15:36;101092.98;;;21.71;30.91
76827;BME280;65788;52.284;20.890;2023-06-04T03:18:05;101093.63;;;21.72;30.88
76827;BME280;65788;52.284;20.890;2023-06-04T03:20:32;101097.65;;;21.72;30.86
76827;BME280;65788;52.284;20.890;2023-06-04T03:23:04;101092.69;;;21.69;30.88
76827;BME280;65788;52.284;20.890;2023-06-04T03:25:31;101095.00;;;21.68;30.90
76827;BME280;65788;52.284;20.890;2023-06-04T03:27:58;101092.47;;;21.70;30.85
76827;BME280;65788;52.284;20.890;2023-06-04T03:30:25;101094.86;;;21.71;30.84
76827;BME280;65788;52.284;20.890;2023-06-04T03:32:52;101095.83;;;21.68;30.87
76827;BME280;65788;52.284;20.890;2023-06-04T03:35:20;101093.93;;;21.68;30.86
76827;BME280;65788;52.284;20.890;2023-06-04T03:37:47;101092.69;;;21.69;30.81
76827;BME280;65788;52.284;20.890;2023-06-04T03:40:14;101092.10;;;21.67;30.82
76827;BME280;65788;52.284;20.890;2023-06-04T03:42:41;101094.56;;;21.63;30.88
76827;BME280;65788;52.284;20.890;2023-06-04T03:45:08;101099.70;;;21.63;30.85
76827;BME280;65788;52.284;20.890;2023-06-04T03:47:35;101100.42;;;21.63;30.82
76827;BME280;65788;52.284;20.890;2023-06-04T03:50:06;101099.89;;;21.67;30.76
76827;BME280;65788;52.284;20.890;2023-06-04T03:52:33;101101.23;;;21.65;30.79
76827;BME280;65788;52.284;20.890;2023-06-04T03:55:00;101103.77;;;21.63;30.79
76827;BME280;65788;52.284;20.890;2023-06-04T03:57:28;101106.11;;;21.63;30.81
76827;BME280;65788;52.284;20.890;2023-06-04T03:59:55;101108.27;;;21.60;30.84
76827;BME280;65788;52.284;20.890;2023-06-04T04:02:22;101102.67;;;21.60;30.82
76827;BME280;65788;52.284;20.890;2023-06-04T04:04:49;101104.77;;;21.61;30.80
76827;BME280;65788;52.284;20.890;2023-06-04T04:07:16;101105.72;;;21.61;30.80
76827;BME280;65788;52.284;20.890;2023-06-04T04:09:43;101110.35;;;21.60;30.82
76827;BME280;65788;52.284;20.890;2023-06-04T04:12:11;101106.95;;;21.60;30.80
76827;BME280;65788;52.284;20.890;2023-06-04T04:14:38;101103.39;;;21.60;30.81
76827;BME280;65788;52.284;20.890;2023-06-04T04:17:04;101103.79;;;21.59;30.81
76827;BME280;65788;52.284;20.890;2023-06-04T04:19:31;101102.42;;;21.55;30.90
76827;BME280;65788;52.284;20.890;2023-06-04T04:21:58;101100.63;;;21.56;30.84
76827;BME280;65788;52.284;20.890;2023-06-04T04:24:28;101100.33;;;21.59;30.79
76827;BME280;65788;52.284;20.890;2023-06-04T04:26:56;101100.32;;;21.57;30.81
76827;BME280;65788;52.284;20.890;2023-06-04T04:29:25;101102.77;;;21.57;30.82
76827;BME280;65788;52.284;20.890;2023-06-04T04:31:54;101099.77;;;21.59;30.79
76827;BME280;65788;52.284;20.890;2023-06-04T04:34:26;101100.27;;;21.59;30.78
76827;BME280;65788;52.284;20.890;2023-06-04T04:36:53;101098.98;;;21.59;30.74
76827;BME280;65788;52.284;20.890;2023-06-04T04:39:23;101103.10;;;21.57;30.79
76827;BME280;65788;52.284;20.890;2023-06-04T04:41:51;101101.01;;;21.58;30.77
76827;BME280;65788;52.284;20.890;2023-06-04T04:44:19;101100.28;;;21.56;30.82
76827;BME280;65788;52.284;20.890;2023-06-04T04:46:49;101094.36;;;21.59;30.80
76827;BME280;65788;52.284;20.890;2023-06-04T04:49:16;101095.56;;;21.60;30.77
76827;BME280;65788;52.284;20.890;2023-06-04T04:51:43;101095.30;;;21.61;30.66
76827;BME280;65788;52.284;20.890;2023-06-04T04:54:10;101098.16;;;21.62;30.62
76827;BME280;65788;52.284;20.890;2023-06-04T04:56:37;101096.08;;;21.57;30.71
76827;BME280;65788;52.284;20.890;2023-06-04T04:59:04;101094.25;;;21.58;30.70
76827;BME280;65788;52.284;20.890;2023-06-04T05:01:31;101095.98;;;21.59;30.75
76827;BME280;65788;52.284;20.890;2023-06-04T05:03:58;101095.66;;;21.57;30.81
76827;BME280;65788;52.284;20.890;2023-06-04T05:06:25;101099.49;;;21.61;30.78
76827;BME280;65788;52.284;20.890;2023-06-04T05:08:52;101095.67;;;21.64;30.70
76827;BME280;65788;52.284;20.890;2023-06-04T05:11:19;101096.10;;;21.62;30.73
76827;BME280;65788;52.284;20.890;2023-06-04T05:13:46;101093.66;;;21.64;30.67
76827;BME280;65788;52.284;20.890;2023-06-04T05:16:13;101092.92;;;21.62;30.63
76827;BME280;65788;52.284;20.890;2023-06-04T05:18:43;101090.84;;;21.61;30.57
76827;BME280;65788;52.284;20.890;2023-06-04T05:21:11;101095.64;;;21.60;30.57
76827;BME280;65788;52.284;20.890;2023-06-04T05:23:40;101089.38;;;21.61;30.51
76827;BME280;65788;52.284;20.890;2023-06-04T05:26:07;101089.50;;;21.61;30.32
76827;BME280;65788;52.284;20.890;2023-06-04T05:28:34;101093.33;;;21.61;30.29
76827;BME280;65788;52.284;20.890;2023-06-04T05:31:01;101093.73;;;21.58;30.27
76827;BME280;65788;52.284;20.890;2023-06-04T05:33:30;101093.16;;;21.59;30.30
76827;BME280;65788;52.284;20.890;2023-06-04T05:35:57;101092.99;;;21.59;30.18
76827;BME280;65788;52.284;20.890;2023-06-04T05:38:27;101094.96;;;21.60;30.17
76827;BME280;65788;52.284;20.890;2023-06-04T05:40:58;101091.41;;;21.57;30.24
76827;BME280;65788;52.284;20.890;2023-06-04T05:43:24;101095.05;;;21.59;30.17
76827;BME280;65788;52.284;20.890;2023-06-04T05:45:54;101096.75;;;21.62;30.48
76827;BME280;65788;52.284;20.890;2023-06-04T05:48:21;101097.27;;;21.59;31.45
76827;BME280;65788;52.284;20.890;2023-06-04T05:50:48;101095.98;;;21.62;31.03
76827;BME280;65788;52.284;20.890;2023-06-04T05:53:15;101093.48;;;21.62;30.84
76827;BME280;65788;52.284;20.890;2023-06-04T05:55:43;101094.17;;;21.63;30.79
76827;BME280;65788;52.284;20.890;2023-06-04T05:58:10;101093.10;;;21.62;31.34
76827;BME280;65788;52.284;20.890;2023-06-04T06:00:36;101094.36;;;21.65;31.60
76827;BME280;65788;52.284;20.890;2023-06-04T06:03:03;101093.73;;;21.66;31.71
76827;BME280;65788;52.284;20.890;2023-06-04T06:05:32;101097.08;;;21.66;32.40
76827;BME280;65788;52.284;20.890;2023-06-04T06:08:00;101094.69;;;21.66;32.41
76827;BME280;65788;52.284;20.890;2023-06-04T06:10:27;101095.32;;;21.66;32.72
76827;BME280;65788;52.284;20.890;2023-06-04T06:12:54;101100.95;;;21.71;32.76
76827;BME280;65788;52.284;20.890;2023-06-04T06:15:21;101106.12;;;21.74;32.57
76827;BME280;65788;52.284;20.890;2023-06-04T06:17:48;101107.88;;;21.72;32.33
76827;BME280;65788;52.284;20.890;2023-06-04T06:20:15;101111.48;;;21.74;32.20
76827;BME280;65788;52.284;20.890;2023-06-04T06:22:44;101109.42;;;21.74;31.78
76827;BME280;65788;52.284;20.890;2023-06-04T06:25:11;101107.41;;;21.74;31.70
76827;BME280;65788;52.284;20.890;2023-06-04T06:27:42;101109.93;;;21.76;31.54
76827;BME280;65788;52.284;20.890;2023-06-04T06:30:10;101111.67;;;21.77;31.06
76827;BME280;65788;52.284;20.890;2023-06-04T06:32:37;101114.08;;;21.75;31.09
76827;BME280;65788;52.284;20.890;2023-06-04T06:35:06;101112.90;;;21.73;31.01
76827;BME280;65788;52.284;20.890;2023-06-04T06:37:34;101115.10;;;21.77;30.95
76827;BME280;65788;52.284;20.890;2023-06-04T06:40:01;101115.20;;;21.77;30.93
76827;BME280;65788;52.284;20.890;2023-06-04T06:42:32;101114.38;;;21.79;30.81
76827;BME280;65788;52.284;20.890;2023-06-04T06:44:59;101114.20;;;21.79;30.73
76827;BME280;65788;52.284;20.890;2023-06-04T06:47:27;101120.80;;;21.81;30.81
76827;BME280;65788;52.284;20.890;2023-06-04T06:49:54;101124.95;;;21.81;30.63
76827;BME280;65788;52.284;20.890;2023-06-04T06:52:21;101124.09;;;21.82;30.79
76827;BME280;65788;52.284;20.890;2023-06-04T06:54:48;101123.33;;;21.81;30.81
76827;BME280;65788;52.284;20.890;2023-06-04T06:57:15;101122.38;;;21.81;30.86
76827;BME280;65788;52.284;20.890;2023-06-04T06:59:43;101124.50;;;21.83;30.80
76827;BME280;65788;52.284;20.890;2023-06-04T07:02:10;101123.70;;;21.82;30.48
76827;BME280;65788;52.284;20.890;2023-06-04T07:04:37;101125.75;;;21.85;30.22
76827;BME280;65788;52.284;20.890;2023-06-04T07:07:04;101126.00;;;21.87;30.25
76827;BME280;65788;52.284;20.890;2023-06-04T07:09:32;101129.67;;;21.87;30.41
76827;BME280;65788;52.284;20.890;2023-06-04T07:11:59;101128.98;;;21.88;30.44
76827;BME280;65788;52.284;20.890;2023-06-04T07:14:26;101131.39;;;21.88;30.45
76827;BME280;65788;52.284;20.890;2023-06-04T07:16:53;101129.41;;;21.88;30.45
76827;BME280;65788;52.284;20.890;2023-06-04T07:19:19;101130.20;;;21.86;29.93
76827;BME280;65788;52.284;20.890;2023-06-04T07:21:46;101131.35;;;21.87;28.89
76827;BME280;65788;52.284;20.890;2023-06-04T07:24:14;101128.73;;;21.85;29.05
76827;BME280;65788;52.284;20.890;2023-06-04T07:26:41;101128.17;;;21.87;29.10
76827;BME280;65788;52.284;20.890;2023-06-04T07:29:08;101123.91;;;21.85;28.97
76827;BME280;65788;52.284;20.890;2023-06-04T07:31:35;101123.43;;;21.93;29.60
76827;BME280;65788;52.284;20.890;2023-06-04T07:34:02;101126.92;;;21.99;29.00
76827;BME280;65788;52.284;20.890;2023-06-04T07:36:29;101125.82;;;22.02;28.50
76827;BME280;65788;52.284;20.890;2023-06-04T07:38:57;101123.25;;;22.11;28.39
76827;BME280;65788;52.284;20.890;2023-06-04T07:41:24;101119.18;;;22.18;28.28
76827;BME280;65788;52.284;20.890;2023-06-04T07:43:52;101123.52;;;22.22;28.10
76827;BME280;65788;52.284;20.890;2023-06-04T07:46:19;101122.73;;;22.28;28.14
76827;BME280;65788;52.284;20.890;2023-06-04T07:48:46;101123.75;;;22.33;28.18
76827;BME280;65788;52.284;20.890;2023-06-04T07:51:14;101118.52;;;22.36;27.91
76827;BME280;65788;52.284;20.890;2023-06-04T07:53:41;101122.34;;;22.36;27.48
76827;BME280;65788;52.284;20.890;2023-06-04T07:56:09;101120.27;;;22.39;27.62
76827;BME280;65788;52.284;20.890;2023-06-04T07:58:36;101115.14;;;22.43;27.73
76827;BME280;65788;52.284;20.890;2023-06-04T08:01:02;101116.58;;;22.44;27.90
76827;BME280;65788;52.284;20.890;2023-06-04T08:03:30;101115.97;;;22.46;27.96
76827;BME280;65788;52.284;20.890;2023-06-04T08:05:57;101116.15;;;22.50;27.75
76827;BME280;65788;52.284;20.890;2023-06-04T08:08:24;101118.35;;;22.54;27.84
76827;BME280;65788;52.284;20.890;2023-06-04T08:10:52;101119.44;;;22.58;27.93
76827;BME280;65788;52.284;20.890;2023-06-04T08:13:19;101123.64;;;22.65;27.95
76827;BME280;65788;52.284;20.890;2023-06-04T08:15:46;101125.98;;;22.62;28.01
76827;BME280;65788;52.284;20.890;2023-06-04T08:18:13;101126.48;;;22.58;28.17
76827;BME280;65788;52.284;20.890;2023-06-04T08:20:41;101126.13;;;22.59;28.48
76827;BME280;65788;52.284;20.890;2023-06-04T08:23:08;101128.26;;;22.61;29.65
76827;BME280;65788;52.284;20.890;2023-06-04T08:25:35;101121.77;;;22.74;28.75
76827;BME280;65788;52.284;20.890;2023-06-04T08:28:03;101115.69;;;22.76;28.49
76827;BME280;65788;52.284;20.890;2023-06-04T08:30:30;101111.76;;;22.79;28.43
76827;BME280;65788;52.284;20.890;2023-06-04T08:32:57;101110.09;;;22.84;28.27
76827;BME280;65788;52.284;20.890;2023-06-04T08:35:24;101105.04;;;22.85;28.22
76827;BME280;65788;52.284;20.890;2023-06-04T08:37:51;101099.27;;;22.86;28.25
76827;BME280;65788;52.284;20.890;2023-06-04T08:40:18;101103.64;;;22.84;28.40
76827;BME280;65788;52.284;20.890;2023-06-04T08:42:45;101104.02;;;22.84;28.05
76827;BME280;65788;52.284;20.890;2023-06-04T08:45:14;101104.14;;;22.95;27.52
76827;BME280;65788;52.284;20.890;2023-06-04T08:47:48;101096.59;;;23.03;26.99
76827;BME280;65788;52.284;20.890;2023-06-04T08:50:17;101095.15;;;22.96;27.39
76827;BME280;65788;52.284;20.890;2023-06-04T08:52:44;101094.35;;;22.90;27.57
76827;BME280;65788;52.284;20.890;2023-06-04T08:55:12;101086.76;;;22.66;27.63
76827;BME280;65788;52.284;20.890;2023-06-04T08:57:40;101089.05;;;22.70;28.11
76827;BME280;65788;52.284;20.890;2023-06-04T09:00:08;101095.10;;;22.74;27.90
76827;BME280;65788;52.284;20.890;2023-06-04T09:02:38;101100.22;;;22.73;27.51
76827;BME280;65788;52.284;20.890;2023-06-04T09:05:06;101099.77;;;22.71;27.30
76827;BME280;65788;52.284;20.890;2023-06-04T09:07:36;101103.17;;;22.70;27.09
76827;BME280;65788;52.284;20.890;2023-06-04T09:10:09;101100.52;;;22.69;27.16
76827;BME280;65788;52.284;20.890;2023-06-04T09:12:41;101106.36;;;22.68;26.95
76827;BME280;65788;52.284;20.890;2023-06-04T09:15:09;101101.23;;;22.69;26.93
76827;BME280;65788;52.284;20.890;2023-06-04T09:17:37;101097.59;;;22.70;27.30
76827;BME280;65788;52.284;20.890;2023-06-04T09:20:04;101094.77;;;22.68;27.28
76827;BME280;65788;52.284;20.890;2023-06-04T09:22:36;101097.30;;;22.68;26.96
76827;BME280;65788;52.284;20.890;2023-06-04T09:25:06;101095.54;;;22.69;27.00
76827;BME280;65788;52.284;20.890;2023-06-04T09:27:39;101094.53;;;22.65;26.93
76827;BME280;65788;52.284;20.890;2023-06-04T09:30:09;101091.10;;;22.66;27.40
76827;BME280;65788;52.284;20.890;2023-06-04T09:32:36;101093.06;;;22.67;27.40
76827;BME280;65788;52.284;20.890;2023-06-04T09:35:11;101090.88;;;22.67;27.15
76827;BME280;65788;52.284;20.890;2023-06-04T09:37:51;101088.34;;;22.62;26.94
76827;BME280;65788;52.284;20.890;2023-06-04T09:40:19;101083.10;;;22.64;27.55
76827;BME280;65788;52.284;20.890;2023-06-04T09:42:48;101083.99;;;22.67;27.61
76827;BME280;65788;52.284;20.890;2023-06-04T09:45:34;101079.81;;;22.65;27.54
76827;BME280;65788;52.284;20.890;2023-06-04T09:48:02;101077.63;;;22.69;27.32
76827;BME280;65788;52.284;20.890;2023-06-04T09:50:33;101075.05;;;22.65;27.19
76827;BME280;65788;52.284;20.890;2023-06-04T09:53:12;101070.15;;;22.57;26.54
76827;BME280;65788;52.284;20.890;2023-06-04T09:55:39;101072.70;;;22.63;27.56
76827;BME280;65788;52.284;20.890;2023-06-04T09:58:07;101075.25;;;22.66;27.87
76827;BME280;65788;52.284;20.890;2023-06-04T10:00:34;101080.31;;;22.67;28.67
76827;BME280;65788;52.284;20.890;2023-06-04T10:03:02;101074.38;;;22.68;28.36
76827;BME280;65788;52.284;20.890;2023-06-04T10:05:32;101072.98;;;22.70;28.60
76827;BME280;65788;52.284;20.890;2023-06-04T10:08:03;101072.63;;;22.71;28.52
76827;BME280;65788;52.284;20.890;2023-06-04T10:10:34;101069.02;;;22.70;28.44
76827;BME280;65788;52.284;20.890;2023-06-04T10:13:07;101070.02;;;22.71;28.45
76827;BME280;65788;52.284;20.890;2023-06-04T10:15:36;101066.35;;;22.74;28.47
76827;BME280;65788;52.284;20.890;2023-06-04T10:18:06;101060.23;;;22.72;28.58
76827;BME280;65788;52.284;20.890;2023-06-04T10:20:33;101056.68;;;22.71;28.74
76827;BME280;65788;52.284;20.890;2023-06-04T10:23:00;101062.15;;;22.68;28.86
76827;BME280;65788;52.284;20.890;2023-06-04T10:25:28;101062.37;;;22.68;28.94
76827;BME280;65788;52.284;20.890;2023-06-04T10:27:56;101061.59;;;22.68;28.75
76827;BME280;65788;52.284;20.890;2023-06-04T10:30:23;101052.70;;;22.73;26.04
76827;BME280;65788;52.284;20.890;2023-06-04T10:32:50;101060.21;;;22.74;27.78
76827;BME280;65788;52.284;20.890;2023-06-04T10:35:37;101056.93;;;22.69;28.90
76827;BME280;65788;52.284;20.890;2023-06-04T10:38:09;101055.06;;;22.68;28.98
76827;BME280;65788;52.284;20.890;2023-06-04T10:40:37;101051.94;;;22.68;28.89
76827;BME280;65788;52.284;20.890;2023-06-04T10:43:06;101051.85;;;22.69;28.81
76827;BME280;65788;52.284;20.890;2023-06-04T10:45:34;101051.67;;;22.67;28.67
76827;BME280;65788;52.284;20.890;2023-06-04T10:48:02;101052.29;;;22.67;28.45
76827;BME280;65788;52.284;20.890;2023-06-04T10:50:29;101048.56;;;22.66;28.30
76827;BME280;65788;52.284;20.890;2023-06-04T10:52:56;101044.83;;;22.66;28.28
76827;BME280;65788;52.284;20.890;2023-06-04T10:55:25;101045.86;;;22.75;27.25
76827;BME280;65788;52.284;20.890;2023-06-04T10:57:55;101043.73;;;22.71;28.37
76827;BME280;65788;52.284;20.890;2023-06-04T11:00:37;101042.59;;;22.71;28.48
76827;BME280;65788;52.284;20.890;2023-06-04T11:03:09;101039.75;;;22.71;28.50
76827;BME280;65788;52.284;20.890;2023-06-04T11:05:38;101039.52;;;22.67;28.48
76827;BME280;65788;52.284;20.890;2023-06-04T11:08:06;101041.47;;;22.67;28.51
76827;BME280;65788;52.284;20.890;2023-06-04T11:10:42;101042.02;;;22.68;28.37
76827;BME280;65788;52.284;20.890;2023-06-04T11:13:09;101040.24;;;22.65;28.09
76827;BME280;65788;52.284;20.890;2023-06-04T11:18:05;101036.56;;;22.69;28.23
76827;BME280;65788;52.284;20.890;2023-06-04T11:20:31;101034.15;;;22.68;28.36
76827;BME280;65788;52.284;20.890;2023-06-04T11:22:59;101032.29;;;22.68;28.33
76827;BME280;65788;52.284;20.890;2023-06-04T11:25:27;101035.28;;;22.69;28.39
76827;BME280;65788;52.284;20.890;2023-06-04T11:27:55;101037.89;;;22.70;28.41
76827;BME280;65788;52.284;20.890;2023-06-04T11:30:24;101036.34;;;22.69;28.46
76827;BME280;65788;52.284;20.890;2023-06-04T11:33:00;101034.77;;;22.68;28.48
76827;BME280;65788;52.284;20.890;2023-06-04T11:35:28;101029.98;;;22.69;28.43
76827;BME280;65788;52.284;20.890;2023-06-04T11:37:56;101030.96;;;22.71;28.41
76827;BME280;65788;52.284;20.890;2023-06-04T11:40:24;101033.52;;;22.73;28.43
76827;BME280;65788;52.284;20.890;2023-06-04T11:42:53;101032.39;;;22.74;28.27
76827;BME280;65788;52.284;20.890;2023-06-04T11:45:21;101030.76;;;22.76;28.41
76827;BME280;65788;52.284;20.890;2023-06-04T11:50:15;101031.75;;;22.75;28.51
76827;BME280;65788;52.284;20.890;2023-06-04T11:52:43;101032.45;;;22.78;28.48
76827;BME280;65788;52.284;20.890;2023-06-04T11:55:11;101027.07;;;22.78;28.58
76827;BME280;65788;52.284;20.890;2023-06-04T11:57:39;101024.20;;;22.77;28.70
76827;BME280;65788;52.284;20.890;2023-06-04T12:00:07;101025.13;;;22.76;28.78
76827;BME280;65788;52.284;20.890;2023-06-04T12:02:38;101023.91;;;22.80;28.46
76827;BME280;65788;52.284;20.890;2023-06-04T12:05:12;101023.77;;;22.81;28.59
76827;BME280;65788;52.284;20.890;2023-06-04T12:07:40;101020.08;;;22.81;28.61
76827;BME280;65788;52.284;20.890;2023-06-04T12:10:08;101019.63;;;22.84;28.64
76827;BME280;65788;52.284;20.890;2023-06-04T12:12:35;101021.16;;;22.85;28.66
76827;BME280;65788;52.284;20.890;2023-06-04T12:15:02;101018.20;;;22.85;28.86
76827;BME280;65788;52.284;20.890;2023-06-04T12:17:32;101020.58;;;22.87;28.58
76827;BME280;65788;52.284;20.890;2023-06-04T12:19:59;101011.30;;;23.27;26.29
76827;BME280;65788;52.284;20.890;2023-06-04T12:22:26;101018.27;;;23.10;28.36
76827;BME280;65788;52.284;20.890;2023-06-04T12:24:54;101017.52;;;22.99;28.71
76827;BME280;65788;52.284;20.890;2023-06-04T12:27:23;101021.73;;;22.99;28.43
76827;BME280;65788;52.284;20.890;2023-06-04T12:29:58;101021.26;;;23.00;28.82
76827;BME280;65788;52.284;20.890;2023-06-04T12:32:27;101011.94;;;23.25;27.03
76827;BME280;65788;52.284;20.890;2023-06-04T12:34:54;101013.73;;;23.36;27.41
76827;BME280;65788;52.284;20.890;2023-06-04T12:37:22;101016.39;;;23.18;28.41
76827;BME280;65788;52.284;20.890;2023-06-04T12:39:51;101011.95;;;23.09;29.54
76827;BME280;65788;52.284;20.890;2023-06-04T12:42:19;101013.09;;;23.05;30.04
76827;BME280;65788;52.284;20.890;2023-06-04T12:44:47;101008.37;;;23.03;30.04
76827;BME280;65788;52.284;20.890;2023-06-04T12:47:14;101012.14;;;23.02;30.46
76827;BME280;65788;52.284;20.890;2023-06-04T12:49:44;101016.25;;;23.03;30.69
76827;BME280;65788;52.284;20.890;2023-06-04T12:52:11;101016.68;;;23.02;30.98
76827;BME280;65788;52.284;20.890;2023-06-04T12:54:44;101017.89;;;23.02;30.69
76827;BME280;65788;52.284;20.890;2023-06-04T12:57:11;101019.69;;;23.02;30.75